sensor_id;sensor_type;location;lat;lon;timestamp;pressure;altitude;pressure_sealevel;temperature;humidity
69772;BME280;57046;45.988;18.664;2023-04-23T00:00:53;100426.31;;;11.88;74.06
69772;BME280;57046;45.988;18.664;2023-04-23T00:03:20;100396.34;;;11.64;74.75
69772;BME280;57046;45.988;18.664;2023-04-23T00:05:47;100418.31;;;11.71;74.90
69772;BME280;57046;45.988;18.664;2023-04-23T00:08:17;100364.97;;;11.42;75.08
69772;BME280;57046;45.988;18.664;2023-04-23T00:10:42;100431.59;;;11.85;75.55
69772;BME280;57046;45.988;18.664;2023-04-23T00:13:08;100433.19;;;11.86;74.24
69772;BME280;57046;45.988;18.664;2023-04-23T00:15:33;100427.81;;;11.77;75.86
69772;BME280;57046;45.988;18.664;2023-04-23T00:17:59;100429.03;;;11.59;76.90
69772;BME280;57046;45.988;18.664;2023-04-23T00:20:24;100425.09;;;11.56;77.63
69772;BME280;57046;45.988;18.664;2023-04-23T00:22:50;100425.84;;;11.57;76.24
69772;BME280;57046;45.988;18.664;2023-04-23T00:25:15;100417.00;;;11.48;75.59
69772;BME280;57046;45.988;18.664;2023-04-23T00:27:40;100419.28;;;11.37;73.45
69772;BME280;57046;45.988;18.664;2023-04-23T00:30:06;100419.94;;;11.34;73.46
69772;BME280;57046;45.988;18.664;2023-04-23T00:32:31;100424.38;;;11.39;73.27
69772;BME280;57046;45.988;18.664;2023-04-23T00:34:57;100414.41;;;11.22;73.09
69772;BME280;57046;45.988;18.664;2023-04-23T00:37:22;100412.16;;;11.24;73.19
69772;BME280;57046;45.988;18.664;2023-04-23T00:39:48;100397.13;;;11.06;73.25
69772;BME280;57046;45.988;18.664;2023-04-23T00:42:13;100413.97;;;11.11;73.40
69772;BME280;57046;45.988;18.664;2023-04-23T00:44:39;100402.88;;;11.04;71.98
69772;BME280;57046;45.988;18.664;2023-04-23T00:47:05;100391.44;;;10.99;72.48
69772;BME280;57046;45.988;18.664;2023-04-23T00:49:32;100407.03;;;11.02;72.93
69772;BME280;57046;45.988;18.664;2023-04-23T00:51:57;100408.94;;;11.01;73.27
69772;BME280;57046;45.988;18.664;2023-04-23T00:54:23;100402.56;;;10.97;72.11
69772;BME280;57046;45.988;18.664;2023-04-23T00:56:48;100405.78;;;10.91;73.17
69772;BME280;57046;45.988;18.664;2023-04-23T00:59:14;100400.72;;;10.81;73.75
69772;BME280;57046;45.988;18.664;2023-04-23T01:01:40;100401.19;;;10.83;73.99
69772;BME280;57046;45.988;18.664;2023-04-23T01:04:06;100391.97;;;10.75;74.90
69772;BME280;57046;45.988;18.664;2023-04-23T01:06:32;100403.28;;;10.77;74.11
69772;BME280;57046;45.988;18.664;2023-04-23T01:08:57;100404.88;;;10.78;74.39
69772;BME280;57046;45.988;18.664;2023-04-23T01:11:23;100402.31;;;10.82;75.07
69772;BME280;57046;45.988;18.664;2023-04-23T01:13:49;100377.25;;;10.64;75.38
69772;BME280;57046;45.988;18.664;2023-04-23T01:16:14;100403.75;;;10.79;75.33
69772;BME280;57046;45.988;18.664;2023-04-23T01:18:40;100410.91;;;10.75;76.36
69772;BME280;57046;45.988;18.664;2023-04-23T01:21:05;100403.94;;;10.74;76.06
69772;BME280;57046;45.988;18.664;2023-04-23T01:23:30;100407.09;;;10.76;75.55
69772;BME280;57046;45.988;18.664;2023-04-23T01:25:56;100394.88;;;10.61;76.71
69772;BME280;57046;45.988;18.664;2023-04-23T01:28:21;100410.63;;;10.68;77.03
69772;BME280;57046;45.988;18.664;2023-04-23T01:30:47;100409.34;;;10.65;77.31
69772;BME280;57046;45.988;18.664;2023-04-23T01:33:13;100409.03;;;10.67;76.72
69772;BME280;57046;45.988;18.664;2023-04-23T01:35:40;100404.13;;;10.60;75.88
69772;BME280;57046;45.988;18.664;2023-04-23T01:38:07;100408.56;;;10.56;77.24
69772;BME280;57046;45.988;18.664;2023-04-23T01:40:33;100404.91;;;10.52;76.26
69772;BME280;57046;45.988;18.664;2023-04-23T01:42:59;100403.16;;;10.48;76.53
69772;BME280;57046;45.988;18.664;2023-04-23T01:45:24;100400.94;;;10.50;76.29
69772;BME280;57046;45.988;18.664;2023-04-23T01:47:50;100393.50;;;10.47;75.51
69772;BME280;57046;45.988;18.664;2023-04-23T01:50:15;100392.06;;;10.41;76.15
69772;BME280;57046;45.988;18.664;2023-04-23T01:52:41;100393.63;;;10.42;76.60
69772;BME280;57046;45.988;18.664;2023-04-23T01:55:07;100396.53;;;10.37;77.01
69772;BME280;57046;45.988;18.664;2023-04-23T01:57:32;100395.56;;;10.33;77.32
69772;BME280;57046;45.988;18.664;2023-04-23T02:00:11;100393.16;;;10.31;77.38
69772;BME280;57046;45.988;18.664;2023-04-23T02:02:38;100394.16;;;10.27;77.63
69772;BME280;57046;45.988;18.664;2023-04-23T02:05:09;100395.56;;;10.24;77.39
69772;BME280;57046;45.988;18.664;2023-04-23T02:07:34;100383.84;;;10.20;77.72
69772;BME280;57046;45.988;18.664;2023-04-23T02:10:00;100382.38;;;10.14;77.57
69772;BME280;57046;45.988;18.664;2023-04-23T02:12:26;100386.50;;;10.11;77.75
69772;BME280;57046;45.988;18.664;2023-04-23T02:14:52;100385.69;;;10.11;78.89
69772;BME280;57046;45.988;18.664;2023-04-23T02:17:19;100397.28;;;10.11;78.36
69772;BME280;57046;45.988;18.664;2023-04-23T02:19:45;100388.22;;;10.07;78.42
69772;BME280;57046;45.988;18.664;2023-04-23T02:22:10;100392.69;;;10.12;78.13
69772;BME280;57046;45.988;18.664;2023-04-23T02:24:35;100367.44;;;9.91;79.84
69772;BME280;57046;45.988;18.664;2023-04-23T02:27:01;100384.44;;;10.00;80.03
69772;BME280;57046;45.988;18.664;2023-04-23T02:29:26;100367.59;;;9.86;80.87
69772;BME280;57046;45.988;18.664;2023-04-23T02:31:52;100392.53;;;9.91;81.43
69772;BME280;57046;45.988;18.664;2023-04-23T02:34:17;100391.41;;;9.92;81.19
69772;BME280;57046;45.988;18.664;2023-04-23T02:36:42;100382.66;;;9.87;81.67
69772;BME280;57046;45.988;18.664;2023-04-23T02:39:08;100388.69;;;9.84;81.27
69772;BME280;57046;45.988;18.664;2023-04-23T02:41:33;100393.00;;;9.85;81.48
69772;BME280;57046;45.988;18.664;2023-04-23T02:43:58;100394.25;;;9.79;81.55
69772;BME280;57046;45.988;18.664;2023-04-23T02:46:24;100395.38;;;9.69;81.61
69772;BME280;57046;45.988;18.664;2023-04-23T02:48:49;100382.50;;;9.66;80.36
69772;BME280;57046;45.988;18.664;2023-04-23T02:51:15;100386.91;;;9.53;79.41
69772;BME280;57046;45.988;18.664;2023-04-23T02:53:40;100382.47;;;9.49;78.13
69772;BME280;57046;45.988;18.664;2023-04-23T02:56:06;100372.13;;;9.34;78.81
69772;BME280;57046;45.988;18.664;2023-04-23T02:58:31;100383.06;;;9.29;79.39
69772;BME280;57046;45.988;18.664;2023-04-23T03:00:57;100375.56;;;9.26;80.31
69772;BME280;57046;45.988;18.664;2023-04-23T03:03:23;100370.50;;;9.24;79.99
69772;BME280;57046;45.988;18.664;2023-04-23T03:05:48;100374.47;;;9.27;80.39
69772;BME280;57046;45.988;18.664;2023-04-23T03:08:13;100373.19;;;9.24;80.46
69772;BME280;57046;45.988;18.664;2023-04-23T03:10:39;100376.19;;;9.23;81.17
69772;BME280;57046;45.988;18.664;2023-04-23T03:13:04;100371.13;;;9.21;80.03
69772;BME280;57046;45.988;18.664;2023-04-23T03:15:30;100378.09;;;9.22;80.92
69772;BME280;57046;45.988;18.664;2023-04-23T03:17:55;100382.38;;;9.23;81.93
69772;BME280;57046;45.988;18.664;2023-04-23T03:20:20;100369.19;;;9.13;80.96
69772;BME280;57046;45.988;18.664;2023-04-23T03:22:46;100377.28;;;9.13;81.33
69772;BME280;57046;45.988;18.664;2023-04-23T03:25:11;100386.78;;;9.10;81.64
69772;BME280;57046;45.988;18.664;2023-04-23T03:27:39;100383.13;;;9.06;82.25
69772;BME280;57046;45.988;18.664;2023-04-23T03:30:06;100379.81;;;9.09;80.64
69772;BME280;57046;45.988;18.664;2023-04-23T03:32:32;100381.69;;;9.09;81.05
69772;BME280;57046;45.988;18.664;2023-04-23T03:34:57;100386.28;;;9.08;81.40
69772;BME280;57046;45.988;18.664;2023-04-23T03:37:23;100374.41;;;9.01;82.05
69772;BME280;57046;45.988;18.664;2023-04-23T03:39:48;100383.28;;;9.10;81.12
69772;BME280;57046;45.988;18.664;2023-04-23T03:42:13;100384.91;;;9.11;82.04
69772;BME280;57046;45.988;18.664;2023-04-23T03:44:39;100385.53;;;9.08;80.64
69772;BME280;57046;45.988;18.664;2023-04-23T03:47:04;100385.03;;;9.06;81.92
69772;BME280;57046;45.988;18.664;2023-04-23T03:49:29;100387.72;;;9.06;81.49
69772;BME280;57046;45.988;18.664;2023-04-23T03:51:55;100387.88;;;9.01;82.37
69772;BME280;57046;45.988;18.664;2023-04-23T03:54:20;100378.31;;;8.95;82.55
69772;BME280;57046;45.988;18.664;2023-04-23T03:56:45;100385.00;;;8.97;84.04
69772;BME280;57046;45.988;18.664;2023-04-23T03:59:11;100382.78;;;8.99;82.92
69772;BME280;57046;45.988;18.664;2023-04-23T04:01:36;100394.06;;;9.01;83.02
69772;BME280;57046;45.988;18.664;2023-04-23T04:04:01;100387.19;;;8.95;84.02
69772;BME280;57046;45.988;18.664;2023-04-23T04:06:27;100391.63;;;8.91;84.29
69772;BME280;57046;45.988;18.664;2023-04-23T04:08:52;100384.94;;;8.89;85.09
69772;BME280;57046;45.988;18.664;2023-04-23T04:11:17;100378.75;;;8.88;84.95
69772;BME280;57046;45.988;18.664;2023-04-23T04:13:43;100387.34;;;8.90;85.72
69772;BME280;57046;45.988;18.664;2023-04-23T04:16:08;100384.03;;;8.93;85.91
69772;BME280;57046;45.988;18.664;2023-04-23T04:18:33;100377.72;;;8.98;85.84
69772;BME280;57046;45.988;18.664;2023-04-23T04:20:58;100385.78;;;8.98;85.69
69772;BME280;57046;45.988;18.664;2023-04-23T04:23:24;100385.47;;;8.99;84.58
69772;BME280;57046;45.988;18.664;2023-04-23T04:25:49;100381.97;;;8.99;85.50
69772;BME280;57046;45.988;18.664;2023-04-23T04:28:14;100388.78;;;8.96;86.09
69772;BME280;57046;45.988;18.664;2023-04-23T04:30:40;100393.88;;;8.98;84.96
69772;BME280;57046;45.988;18.664;2023-04-23T04:33:05;100388.31;;;8.94;86.11
69772;BME280;57046;45.988;18.664;2023-04-23T04:35:31;100390.88;;;8.99;86.19
69772;BME280;57046;45.988;18.664;2023-04-23T04:37:56;100396.75;;;9.01;85.57
69772;BME280;57046;45.988;18.664;2023-04-23T04:40:22;100392.94;;;9.02;85.76
69772;BME280;57046;45.988;18.664;2023-04-23T04:42:47;100395.19;;;9.09;84.58
69772;BME280;57046;45.988;18.664;2023-04-23T04:45:12;100395.84;;;9.14;83.89
69772;BME280;57046;45.988;18.664;2023-04-23T04:47:38;100394.28;;;9.22;83.69
69772;BME280;57046;45.988;18.664;2023-04-23T04:50:04;100397.94;;;9.26;84.75
69772;BME280;57046;45.988;18.664;2023-04-23T04:52:30;100400.97;;;9.33;83.06
69772;BME280;57046;45.988;18.664;2023-04-23T04:54:55;100398.44;;;9.37;83.31
69772;BME280;57046;45.988;18.664;2023-04-23T04:57:21;100403.56;;;9.47;82.08
69772;BME280;57046;45.988;18.664;2023-04-23T04:59:46;100407.22;;;9.59;82.80
69772;BME280;57046;45.988;18.664;2023-04-23T05:02:12;100412.81;;;9.71;83.30
69772;BME280;57046;45.988;18.664;2023-04-23T05:04:37;100410.75;;;9.77;82.63
69772;BME280;57046;45.988;18.664;2023-04-23T05:07:03;100421.25;;;9.79;82.12
69772;BME280;57046;45.988;18.664;2023-04-23T05:09:28;100415.69;;;9.84;81.96
69772;BME280;57046;45.988;18.664;2023-04-23T05:11:53;100422.84;;;9.88;81.87
69772;BME280;57046;45.988;18.664;2023-04-23T05:14:19;100421.44;;;9.99;81.62
69772;BME280;57046;45.988;18.664;2023-04-23T05:16:44;100410.16;;;10.06;80.88
69772;BME280;57046;45.988;18.664;2023-04-23T05:19:10;100411.31;;;10.31;79.41
69772;BME280;57046;45.988;18.664;2023-04-23T05:21:35;100420.50;;;10.38;78.64
69772;BME280;57046;45.988;18.664;2023-04-23T05:24:01;100414.31;;;10.46;78.31
69772;BME280;57046;45.988;18.664;2023-04-23T05:26:26;100412.06;;;10.57;77.26
69772;BME280;57046;45.988;18.664;2023-04-23T05:28:52;100421.78;;;10.58;77.20
69772;BME280;57046;45.988;18.664;2023-04-23T05:31:17;100427.94;;;10.58;76.74
69772;BME280;57046;45.988;18.664;2023-04-23T05:33:43;100426.34;;;10.66;75.97
69772;BME280;57046;45.988;18.664;2023-04-23T05:36:08;100414.59;;;10.70;76.54
69772;BME280;57046;45.988;18.664;2023-04-23T05:38:34;100423.91;;;10.90;76.00
69772;BME280;57046;45.988;18.664;2023-04-23T05:40:59;100423.56;;;11.00;74.79
69772;BME280;57046;45.988;18.664;2023-04-23T05:43:25;100427.50;;;11.11;75.47
69772;BME280;57046;45.988;18.664;2023-04-23T05:45:50;100426.66;;;11.19;73.32
69772;BME280;57046;45.988;18.664;2023-04-23T05:48:15;100428.25;;;11.29;73.31
69772;BME280;57046;45.988;18.664;2023-04-23T05:50:41;100430.72;;;11.43;72.36
69772;BME280;57046;45.988;18.664;2023-04-23T05:53:06;100426.72;;;11.49;71.42
69772;BME280;57046;45.988;18.664;2023-04-23T05:55:32;100436.22;;;11.55;71.90
69772;BME280;57046;45.988;18.664;2023-04-23T05:57:58;100426.50;;;11.54;72.55
69772;BME280;57046;45.988;18.664;2023-04-23T06:00:23;100399.97;;;11.47;71.34
69772;BME280;57046;45.988;18.664;2023-04-23T06:02:48;100422.31;;;11.73;71.88
69772;BME280;57046;45.988;18.664;2023-04-23T06:05:14;100426.84;;;11.82;71.67
69772;BME280;57046;45.988;18.664;2023-04-23T06:07:39;100432.53;;;11.89;69.98
69772;BME280;57046;45.988;18.664;2023-04-23T06:10:05;100432.69;;;11.92;71.36
69772;BME280;57046;45.988;18.664;2023-04-23T06:12:30;100431.84;;;12.00;70.40
69772;BME280;57046;45.988;18.664;2023-04-23T06:14:56;100430.28;;;12.11;69.23
69772;BME280;57046;45.988;18.664;2023-04-23T06:17:21;100437.13;;;12.17;70.16
69772;BME280;57046;45.988;18.664;2023-04-23T06:19:46;100435.78;;;12.23;69.95
69772;BME280;57046;45.988;18.664;2023-04-23T06:22:12;100428.38;;;12.33;67.66
69772;BME280;57046;45.988;18.664;2023-04-23T06:24:37;100443.91;;;12.44;67.18
69772;BME280;57046;45.988;18.664;2023-04-23T06:27:02;100432.31;;;12.56;66.89
69772;BME280;57046;45.988;18.664;2023-04-23T06:29:28;100429.84;;;12.63;66.96
69772;BME280;57046;45.988;18.664;2023-04-23T06:31:54;100432.50;;;12.71;67.26
69772;BME280;57046;45.988;18.664;2023-04-23T06:34:20;100436.94;;;12.88;67.00
69772;BME280;57046;45.988;18.664;2023-04-23T06:36:45;100433.81;;;12.98;67.37
69772;BME280;57046;45.988;18.664;2023-04-23T06:39:10;100443.66;;;13.03;65.85
69772;BME280;57046;45.988;18.664;2023-04-23T06:41:37;100433.28;;;13.17;65.09
69772;BME280;57046;45.988;18.664;2023-04-23T06:44:02;100401.81;;;13.04;64.34
69772;BME280;57046;45.988;18.664;2023-04-23T06:46:27;100435.22;;;13.41;65.28
69772;BME280;57046;45.988;18.664;2023-04-23T06:48:53;100434.13;;;13.54;64.83
69772;BME280;57046;45.988;18.664;2023-04-23T06:51:18;100430.16;;;13.63;64.18
69772;BME280;57046;45.988;18.664;2023-04-23T06:53:44;100430.25;;;13.67;63.54
69772;BME280;57046;45.988;18.664;2023-04-23T06:56:09;100421.75;;;13.81;63.10
69772;BME280;57046;45.988;18.664;2023-04-23T06:58:34;100429.19;;;13.96;63.16
69772;BME280;57046;45.988;18.664;2023-04-23T07:01:00;100424.53;;;14.08;65.37
69772;BME280;57046;45.988;18.664;2023-04-23T07:03:29;100427.06;;;14.41;63.50
69772;BME280;57046;45.988;18.664;2023-04-23T07:05:55;100414.38;;;14.61;73.70
69772;BME280;57046;45.988;18.664;2023-04-23T07:08:20;100423.66;;;14.60;63.72
69772;BME280;57046;45.988;18.664;2023-04-23T07:10:46;100414.25;;;14.69;64.79
69772;BME280;57046;45.988;18.664;2023-04-23T07:13:11;100410.03;;;14.88;61.69
69772;BME280;57046;45.988;18.664;2023-04-23T07:15:36;100414.72;;;15.03;62.04
69772;BME280;57046;45.988;18.664;2023-04-23T07:18:02;100424.47;;;15.19;63.67
69772;BME280;57046;45.988;18.664;2023-04-23T07:20:28;100411.38;;;15.25;60.41
69772;BME280;57046;45.988;18.664;2023-04-23T07:22:53;100412.59;;;15.43;58.73
69772;BME280;57046;45.988;18.664;2023-04-23T07:25:18;100412.41;;;15.52;56.97
69772;BME280;57046;45.988;18.664;2023-04-23T07:27:44;100417.06;;;15.67;58.22
69772;BME280;57046;45.988;18.664;2023-04-23T07:30:09;100409.16;;;15.62;58.12
69772;BME280;57046;45.988;18.664;2023-04-23T07:32:35;100413.94;;;15.84;60.61
69772;BME280;57046;45.988;18.664;2023-04-23T07:35:00;100419.88;;;16.05;58.17
69772;BME280;57046;45.988;18.664;2023-04-23T07:37:26;100417.41;;;16.19;57.57
69772;BME280;57046;45.988;18.664;2023-04-23T07:39:51;100406.31;;;16.28;58.73
69772;BME280;57046;45.988;18.664;2023-04-23T07:42:16;100412.41;;;16.41;57.95
69772;BME280;57046;45.988;18.664;2023-04-23T07:44:42;100417.56;;;16.65;57.86
69772;BME280;57046;45.988;18.664;2023-04-23T07:47:07;100420.03;;;16.70;55.29
69772;BME280;57046;45.988;18.664;2023-04-23T07:49:32;100415.53;;;16.81;56.47
69772;BME280;57046;45.988;18.664;2023-04-23T07:51:57;100415.50;;;17.00;57.80
69772;BME280;57046;45.988;18.664;2023-04-23T07:54:23;100419.25;;;17.15;55.96
69772;BME280;57046;45.988;18.664;2023-04-23T07:56:48;100410.16;;;17.30;57.43
69772;BME280;57046;45.988;18.664;2023-04-23T07:59:14;100415.09;;;17.47;55.74
69772;BME280;57046;45.988;18.664;2023-04-23T08:01:39;100418.09;;;17.61;54.12
69772;BME280;57046;45.988;18.664;2023-04-23T08:04:04;100409.59;;;17.70;54.45
69772;BME280;57046;45.988;18.664;2023-04-23T08:06:30;100415.75;;;17.90;51.57
69772;BME280;57046;45.988;18.664;2023-04-23T08:08:55;100411.31;;;18.08;51.23
69772;BME280;57046;45.988;18.664;2023-04-23T08:11:21;100414.28;;;18.25;49.74
69772;BME280;57046;45.988;18.664;2023-04-23T08:13:46;100398.25;;;18.27;47.39
69772;BME280;57046;45.988;18.664;2023-04-23T08:16:12;100407.94;;;18.51;47.31
69772;BME280;57046;45.988;18.664;2023-04-23T08:18:37;100399.81;;;18.58;48.01
69772;BME280;57046;45.988;18.664;2023-04-23T08:21:03;100408.25;;;18.79;48.75
69772;BME280;57046;45.988;18.664;2023-04-23T08:23:28;100410.41;;;19.00;47.87
69772;BME280;57046;45.988;18.664;2023-04-23T08:25:54;100402.63;;;19.06;49.76
69772;BME280;57046;45.988;18.664;2023-04-23T08:28:19;100401.19;;;19.22;49.24
69772;BME280;57046;45.988;18.664;2023-04-23T08:30:45;100405.72;;;19.45;48.58
69772;BME280;57046;45.988;18.664;2023-04-23T08:33:11;100404.97;;;19.51;46.84
69772;BME280;57046;45.988;18.664;2023-04-23T08:35:36;100398.00;;;19.61;47.82
69772;BME280;57046;45.988;18.664;2023-04-23T08:38:02;100393.75;;;19.74;50.35
69772;BME280;57046;45.988;18.664;2023-04-23T08:40:30;100405.22;;;19.90;47.96
69772;BME280;57046;45.988;18.664;2023-04-23T08:43:02;100401.75;;;20.07;47.63
69772;BME280;57046;45.988;18.664;2023-04-23T08:45:31;100403.03;;;20.20;46.00
69772;BME280;57046;45.988;18.664;2023-04-23T08:47:59;100396.81;;;20.30;47.12
69772;BME280;57046;45.988;18.664;2023-04-23T08:50:25;100405.09;;;20.38;44.28
69772;BME280;57046;45.988;18.664;2023-04-23T08:52:53;100392.16;;;20.52;45.68
69772;BME280;57046;45.988;18.664;2023-04-23T08:55:20;100397.69;;;20.66;42.97
69772;BME280;57046;45.988;18.664;2023-04-23T08:57:46;100367.09;;;20.68;42.24
69772;BME280;57046;45.988;18.664;2023-04-23T09:00:13;100391.06;;;20.96;43.69
69772;BME280;57046;45.988;18.664;2023-04-23T09:02:41;100376.56;;;21.06;42.68
69772;BME280;57046;45.988;18.664;2023-04-23T09:05:07;100385.59;;;21.31;42.62
69772;BME280;57046;45.988;18.664;2023-04-23T09:07:33;100384.00;;;21.44;44.67
69772;BME280;57046;45.988;18.664;2023-04-23T09:09:59;100365.16;;;21.50;40.42
69772;BME280;57046;45.988;18.664;2023-04-23T09:12:25;100372.97;;;21.69;41.03
69772;BME280;57046;45.988;18.664;2023-04-23T09:14:51;100367.03;;;21.81;39.41
69772;BME280;57046;45.988;18.664;2023-04-23T09:17:20;100372.16;;;21.93;39.85
69772;BME280;57046;45.988;18.664;2023-04-23T09:19:46;100373.66;;;22.05;39.23
69772;BME280;57046;45.988;18.664;2023-04-23T09:22:13;100362.22;;;22.17;37.43
69772;BME280;57046;45.988;18.664;2023-04-23T09:24:41;100371.25;;;22.24;37.60
69772;BME280;57046;45.988;18.664;2023-04-23T09:27:07;100372.34;;;22.38;36.95
69772;BME280;57046;45.988;18.664;2023-04-23T09:29:32;100353.41;;;22.43;37.25
69772;BME280;57046;45.988;18.664;2023-04-23T09:32:08;100370.28;;;22.52;34.67
69772;BME280;57046;45.988;18.664;2023-04-23T09:34:35;100358.06;;;22.57;33.88
69772;BME280;57046;45.988;18.664;2023-04-23T09:37:00;100352.88;;;22.69;35.60
69772;BME280;57046;45.988;18.664;2023-04-23T09:39:26;100358.72;;;22.82;35.56
69772;BME280;57046;45.988;18.664;2023-04-23T09:41:52;100355.84;;;22.96;35.80
69772;BME280;57046;45.988;18.664;2023-04-23T09:44:18;100349.84;;;23.08;34.09
69772;BME280;57046;45.988;18.664;2023-04-23T09:46:44;100350.91;;;23.21;33.17
69772;BME280;57046;45.988;18.664;2023-04-23T09:49:11;100322.25;;;23.08;34.59
69772;BME280;57046;45.988;18.664;2023-04-23T09:51:41;100345.28;;;23.32;34.56
69772;BME280;57046;45.988;18.664;2023-04-23T09:56:38;100339.50;;;23.19;32.08
69772;BME280;57046;45.988;18.664;2023-04-23T10:01:44;100338.09;;;23.45;35.04
69772;BME280;57046;45.988;18.664;2023-04-23T10:04:11;100332.78;;;23.61;31.16
69772;BME280;57046;45.988;18.664;2023-04-23T10:06:37;100325.63;;;23.67;28.99
69772;BME280;57046;45.988;18.664;2023-04-23T10:09:02;100331.75;;;23.82;30.52
69772;BME280;57046;45.988;18.664;2023-04-23T10:11:28;100329.38;;;23.84;29.28
69772;BME280;57046;45.988;18.664;2023-04-23T10:13:54;100332.84;;;23.92;28.30
69772;BME280;57046;45.988;18.664;2023-04-23T10:16:21;100325.16;;;24.06;27.84
69772;BME280;57046;45.988;18.664;2023-04-23T10:18:46;100332.97;;;24.15;26.77
69772;BME280;57046;45.988;18.664;2023-04-23T10:21:13;100328.91;;;24.23;27.39
69772;BME280;57046;45.988;18.664;2023-04-23T10:23:41;100326.41;;;24.32;28.10
69772;BME280;57046;45.988;18.664;2023-04-23T10:26:08;100323.88;;;24.45;27.72
69772;BME280;57046;45.988;18.664;2023-04-23T10:28:37;100315.09;;;24.50;27.86
69772;BME280;57046;45.988;18.664;2023-04-23T10:31:04;100324.44;;;24.59;27.83
69772;BME280;57046;45.988;18.664;2023-04-23T10:33:30;100322.88;;;24.81;27.11
69772;BME280;57046;45.988;18.664;2023-04-23T10:35:56;100323.47;;;24.96;28.20
69772;BME280;57046;45.988;18.664;2023-04-23T10:38:22;100314.63;;;25.05;27.37
69772;BME280;57046;45.988;18.664;2023-04-23T10:40:51;100310.03;;;25.18;25.86
69772;BME280;57046;45.988;18.664;2023-04-23T10:43:19;100311.25;;;25.17;26.73
69772;BME280;57046;45.988;18.664;2023-04-23T10:45:45;100319.56;;;25.17;28.25
69772;BME280;57046;45.988;18.664;2023-04-23T10:48:10;100310.47;;;25.16;29.27
69772;BME280;57046;45.988;18.664;2023-04-23T10:50:35;100307.47;;;25.30;27.55
69772;BME280;57046;45.988;18.664;2023-04-23T10:53:02;100299.72;;;25.65;29.43
69772;BME280;57046;45.988;18.664;2023-04-23T10:55:29;100304.09;;;25.62;26.94
69772;BME280;57046;45.988;18.664;2023-04-23T10:58:01;100293.28;;;25.88;28.34
69772;BME280;57046;45.988;18.664;2023-04-23T11:00:29;100305.09;;;25.72;25.86
69772;BME280;57046;45.988;18.664;2023-04-23T11:05:53;100305.13;;;26.08;27.75
69772;BME280;57046;45.988;18.664;2023-04-23T11:08:18;100299.59;;;26.08;30.19
69772;BME280;57046;45.988;18.664;2023-04-23T11:11:10;100292.31;;;26.14;29.27
69772;BME280;57046;45.988;18.664;2023-04-23T11:13:35;100302.84;;;26.03;25.25
69772;BME280;57046;45.988;18.664;2023-04-23T11:16:22;100309.19;;;26.23;25.97
69772;BME280;57046;45.988;18.664;2023-04-23T11:18:56;100305.22;;;26.40;27.57
69772;BME280;57046;45.988;18.664;2023-04-23T11:21:21;100293.78;;;26.54;31.01
69772;BME280;57046;45.988;18.664;2023-04-23T11:23:46;100288.50;;;26.44;27.06
69772;BME280;57046;45.988;18.664;2023-04-23T11:26:16;100293.28;;;26.43;26.52
69772;BME280;57046;45.988;18.664;2023-04-23T11:28:42;100282.69;;;26.22;26.19
69772;BME280;57046;45.988;18.664;2023-04-23T11:31:08;100287.97;;;26.13;26.75
69772;BME280;57046;45.988;18.664;2023-04-23T11:33:34;100289.13;;;26.15;26.31
69772;BME280;57046;45.988;18.664;2023-04-23T11:36:02;100282.22;;;26.23;25.36
69772;BME280;57046;45.988;18.664;2023-04-23T11:38:31;100279.84;;;26.58;26.68
69772;BME280;57046;45.988;18.664;2023-04-23T11:40:56;100274.13;;;26.49;24.98
69772;BME280;57046;45.988;18.664;2023-04-23T11:43:22;100269.28;;;26.85;26.34
69772;BME280;57046;45.988;18.664;2023-04-23T11:45:47;100270.31;;;26.91;24.44
69772;BME280;57046;45.988;18.664;2023-04-23T11:48:12;100266.38;;;27.21;26.43
69772;BME280;57046;45.988;18.664;2023-04-23T11:50:40;100264.13;;;27.16;24.26
69772;BME280;57046;45.988;18.664;2023-04-23T11:53:09;100264.53;;;27.30;25.25
69772;BME280;57046;45.988;18.664;2023-04-23T11:55:35;100257.75;;;27.31;26.61
69772;BME280;57046;45.988;18.664;2023-04-23T11:58:01;100262.03;;;27.20;24.58
69772;BME280;57046;45.988;18.664;2023-04-23T12:00:27;100258.94;;;27.47;27.60
69772;BME280;57046;45.988;18.664;2023-04-23T12:03:03;100259.69;;;27.18;24.98
69772;BME280;57046;45.988;18.664;2023-04-23T12:08:14;100257.75;;;27.03;26.62
69772;BME280;57046;45.988;18.664;2023-04-23T12:10:45;100249.13;;;27.13;23.78
69772;BME280;57046;45.988;18.664;2023-04-23T12:16:00;100246.75;;;27.57;25.27
69772;BME280;57046;45.988;18.664;2023-04-23T12:18:30;100241.19;;;27.57;24.59
69772;BME280;57046;45.988;18.664;2023-04-23T12:21:05;100239.44;;;27.34;24.11
69772;BME280;57046;45.988;18.664;2023-04-23T12:23:31;100239.63;;;27.56;24.61
69772;BME280;57046;45.988;18.664;2023-04-23T12:25:56;100230.34;;;27.75;24.22
69772;BME280;57046;45.988;18.664;2023-04-23T12:28:22;100237.13;;;27.74;22.41
69772;BME280;57046;45.988;18.664;2023-04-23T12:30:48;100221.81;;;27.82;22.88
69772;BME280;57046;45.988;18.664;2023-04-23T12:33:14;100225.09;;;27.64;22.49
69772;BME280;57046;45.988;18.664;2023-04-23T12:35:48;100199.34;;;27.76;23.49
69772;BME280;57046;45.988;18.664;2023-04-23T12:38:27;100222.69;;;27.79;23.08
69772;BME280;57046;45.988;18.664;2023-04-23T12:40:57;100216.25;;;27.95;21.39
69772;BME280;57046;45.988;18.664;2023-04-23T12:43:24;100216.63;;;28.09;22.40
69772;BME280;57046;45.988;18.664;2023-04-23T12:45:50;100206.34;;;27.94;24.01
69772;BME280;57046;45.988;18.664;2023-04-23T12:48:15;100212.03;;;28.03;24.08
69772;BME280;57046;45.988;18.664;2023-04-23T12:50:41;100210.03;;;28.28;22.30